Time;durP1;ratioP1;P1;durP2;ratioP2;P2;SDS_P1;SDS_P2;PMS_P1;PMS_P2;Temp;Humidity;BMP_temperature;BMP_pressure;BME280_temperature;BME280_humidity;BME280_pressure;Samples;Min_cycle;Max_cycle;Signal;HPM_P1;HPM_P2
2023/03/15 00:01:40;;;;;;;8.05;2.90;;;;;;;;;;4980125;28;93235;-69
2023/03/15 00:04:07;;;;;;;3.17;2.15;;;;;;;;;;4993824;28;93350;-69
2023/03/15 00:06:33;;;;;;;4.05;1.92;;;;;;;;;;4993444;28;94904;-69
2023/03/15 00:09:00;;;;;;;2.95;1.67;;;;;;;;;;4994116;28;98148;-69
2023/03/15 00:11:29;;;;;;;4.95;1.40;;;;;;;;;;4993415;28;93447;-70
2023/03/15 00:13:56;;;;;;;3.13;1.35;;;;;;;;;;4995146;28;92489;-69
2023/03/15 00:16:26;;;;;;;4.18;1.85;;;;;;;;;;4991611;28;93600;-69
2023/03/15 00:18:53;;;;;;;4.47;1.38;;;;;;;;;;4986066;28;93424;-69
2023/03/15 00:21:19;;;;;;;2.03;1.40;;;;;;;;;;4991567;28;93132;-69
2023/03/15 00:23:46;;;;;;;2.42;1.52;;;;;;;;;;4990801;28;93044;-69
2023/03/15 00:26:12;;;;;;;1.40;1.30;;;;;;;;;;4990440;28;92475;-69
2023/03/15 00:28:39;;;;;;;1.40;1.30;;;;;;;;;;5000951;28;93183;-69
2023/03/15 00:31:08;;;;;;;3.28;1.58;;;;;;;;;;4977879;28;95757;-69
2023/03/15 00:33:34;;;;;;;3.95;1.50;;;;;;;;;;4993519;28;92648;-69
2023/03/15 00:36:01;;;;;;;4.32;1.38;;;;;;;;;;4994254;28;93576;-69
2023/03/15 00:38:28;;;;;;;3.15;1.45;;;;;;;;;;5002508;28;93293;-69
2023/03/15 00:40:54;;;;;;;3.65;1.55;;;;;;;;;;5002083;28;92619;-70
2023/03/15 00:43:20;;;;;;;2.42;1.50;;;;;;;;;;4991748;28;93345;-69
2023/03/15 00:45:47;;;;;;;2.33;1.52;;;;;;;;;;4984617;28;92445;-70
2023/03/15 00:48:14;;;;;;;3.38;1.83;;;;;;;;;;4975704;28;94181;-69
2023/03/15 00:50:40;;;;;;;2.38;1.48;;;;;;;;;;4991885;28;93668;-69
2023/03/15 00:53:07;;;;;;;4.32;1.85;;;;;;;;;;4994209;28;92645;-69
2023/03/15 00:55:34;;;;;;;3.83;1.70;;;;;;;;;;4986625;28;94847;-69
2023/03/15 00:58:00;;;;;;;4.15;1.80;;;;;;;;;;4989618;28;95837;-69
2023/03/15 01:00:27;;;;;;;5.68;2.15;;;;;;;;;;4976721;28;92484;-69
2023/03/15 01:02:53;;;;;;;3.03;1.90;;;;;;;;;;4994326;28;94374;-69
2023/03/15 01:05:20;;;;;;;4.15;1.83;;;;;;;;;;4983047;28;92560;-69
2023/03/15 01:07:46;;;;;;;4.90;2.00;;;;;;;;;;4992238;28;93181;-69
2023/03/15 01:10:14;;;;;;;6.07;2.08;;;;;;;;;;4993423;28;93416;-69
2023/03/15 01:12:40;;;;;;;2.08;1.77;;;;;;;;;;4991729;28;92158;-68
2023/03/15 01:15:07;;;;;;;3.67;1.60;;;;;;;;;;4992707;28;93631;-68
2023/03/15 01:17:33;;;;;;;3.75;1.73;;;;;;;;;;4980347;28;93346;-68
2023/03/15 01:20:00;;;;;;;2.95;1.60;;;;;;;;;;4989779;28;96084;-69
2023/03/15 01:22:26;;;;;;;7.38;2.35;;;;;;;;;;4991958;28;96069;-68
2023/03/15 01:24:52;;;;;;;4.53;1.50;;;;;;;;;;4984975;28;93458;-69
2023/03/15 01:27:19;;;;;;;5.55;1.80;;;;;;;;;;4977284;28;93215;-68
2023/03/15 01:29:45;;;;;;;3.40;1.50;;;;;;;;;;4988427;28;93409;-68
2023/03/15 01:32:11;;;;;;;2.45;1.40;;;;;;;;;;4986862;28;92533;-68
2023/03/15 01:34:38;;;;;;;3.15;1.30;;;;;;;;;;5002838;28;93098;-68
2023/03/15 01:37:04;;;;;;;2.20;1.23;;;;;;;;;;4996200;28;91659;-69
2023/03/15 01:39:31;;;;;;;1.40;1.30;;;;;;;;;;5009228;28;92537;-69
2023/03/15 01:41:57;;;;;;;2.95;1.40;;;;;;;;;;4991569;28;94784;-68
2023/03/15 01:44:23;;;;;;;3.50;1.48;;;;;;;;;;4977419;28;96502;-68
2023/03/15 01:46:50;;;;;;;2.08;1.25;;;;;;;;;;4988955;28;92826;-69
2023/03/15 01:49:21;;;;;;;5.57;1.20;;;;;;;;;;4992631;28;96389;-69
2023/03/15 01:51:50;;;;;;;1.92;1.20;;;;;;;;;;5002807;28;92420;-69
2023/03/15 01:54:25;;;;;;;3.33;1.23;;;;;;;;;;4994529;28;93274;-69
2023/03/15 01:57:00;;;;;;;2.55;1.30;;;;;;;;;;4989785;28;94466;-69
2023/03/15 01:59:38;;;;;;;2.60;1.25;;;;;;;;;;4974673;28;92913;-69
2023/03/15 02:02:04;;;;;;;2.70;1.13;;;;;;;;;;4983778;28;93173;-69
2023/03/15 02:04:37;;;;;;;2.63;1.30;;;;;;;;;;4988332;28;94700;-69
2023/03/15 02:07:04;;;;;;;3.50;1.10;;;;;;;;;;4989294;28;92462;-70
2023/03/15 02:09:36;;;;;;;2.28;1.40;;;;;;;;;;4988134;28;96088;-69
2023/03/15 02:12:03;;;;;;;1.13;1.02;;;;;;;;;;4990790;28;92868;-69
2023/03/15 02:14:31;;;;;;;1.52;1.25;;;;;;;;;;4993079;28;94118;-69
2023/03/15 02:16:57;;;;;;;5.75;1.45;;;;;;;;;;4983976;28;94803;-69
2023/03/15 02:19:29;;;;;;;3.38;1.40;;;;;;;;;;4990537;28;92471;-69
2023/03/15 02:22:06;;;;;;;2.22;1.38;;;;;;;;;;4989259;28;92445;-69
2023/03/15 02:24:44;;;;;;;5.43;1.45;;;;;;;;;;4991348;28;92598;-69
2023/03/15 02:27:11;;;;;;;4.93;1.52;;;;;;;;;;4989115;28;92035;-69
2023/03/15 02:29:37;;;;;;;3.35;1.30;;;;;;;;;;4984414;28;93962;-69
2023/03/15 02:32:04;;;;;;;3.85;1.40;;;;;;;;;;4987673;28;92534;-70
2023/03/15 02:34:30;;;;;;;2.80;1.65;;;;;;;;;;4981593;28;94881;-69
2023/03/15 02:36:57;;;;;;;1.60;1.45;;;;;;;;;;4992510;28;93494;-69
2023/03/15 02:39:24;;;;;;;3.22;1.52;;;;;;;;;;4998588;28;92643;-69
2023/03/15 02:41:55;;;;;;;9.18;2.47;;;;;;;;;;4997376;28;93111;-69
2023/03/15 02:44:25;;;;;;;1.85;1.30;;;;;;;;;;4992807;28;92549;-69
2023/03/15 02:46:53;;;;;;;5.13;1.40;;;;;;;;;;4992665;28;92426;-69
2023/03/15 02:49:24;;;;;;;10.55;1.70;;;;;;;;;;4992534;28;93043;-68
2023/03/15 02:51:50;;;;;;;5.68;2.35;;;;;;;;;;4999991;28;92794;-69
2023/03/15 02:54:17;;;;;;;4.40;2.08;;;;;;;;;;4991544;28;93632;-68
2023/03/15 02:56:43;;;;;;;3.75;1.77;;;;;;;;;;4973646;28;92455;-69
2023/03/15 02:59:11;;;;;;;4.85;1.65;;;;;;;;;;4989508;28;94863;-69
2023/03/15 03:01:38;;;;;;;6.03;1.40;;;;;;;;;;4987125;28;96823;-69
2023/03/15 03:04:04;;;;;;;4.20;1.80;;;;;;;;;;4980451;28;93549;-69
2023/03/15 03:06:30;;;;;;;3.10;1.48;;;;;;;;;;4991509;28;92831;-69
2023/03/15 03:08:57;;;;;;;6.32;1.45;;;;;;;;;;4982375;28;94195;-69
2023/03/15 03:11:23;;;;;;;2.38;1.48;;;;;;;;;;4993076;28;93399;-69
2023/03/15 03:13:50;;;;;;;4.70;1.40;;;;;;;;;;4983033;28;92693;-69
2023/03/15 03:16:16;;;;;;;2.80;1.67;;;;;;;;;;4993367;28;92714;-68
2023/03/15 03:18:42;;;;;;;5.55;1.88;;;;;;;;;;4985316;28;93644;-69
2023/03/15 03:21:08;;;;;;;7.18;1.67;;;;;;;;;;4993111;28;94322;-70
2023/03/15 03:23:35;;;;;;;3.42;1.95;;;;;;;;;;4991011;28;96886;-68
2023/03/15 03:26:02;;;;;;;2.35;1.67;;;;;;;;;;4989954;28;92565;-68
2023/03/15 03:28:30;;;;;;;10.55;2.17;;;;;;;;;;4983013;28;93298;-69
2023/03/15 03:30:57;;;;;;;3.97;1.70;;;;;;;;;;4995124;28;93410;-69
2023/03/15 03:33:24;;;;;;;2.75;1.60;;;;;;;;;;4981163;28;92585;-69
2023/03/15 03:35:50;;;;;;;4.00;1.83;;;;;;;;;;5003524;28;94310;-69
2023/03/15 03:38:17;;;;;;;3.90;2.00;;;;;;;;;;4994963;28;93104;-69
2023/03/15 03:40:44;;;;;;;2.72;1.90;;;;;;;;;;5008646;28;93444;-69
2023/03/15 03:43:10;;;;;;;4.00;1.95;;;;;;;;;;5006227;28;93927;-69
2023/03/15 03:45:37;;;;;;;4.20;2.10;;;;;;;;;;4993804;28;92627;-69
2023/03/15 03:48:03;;;;;;;5.97;2.05;;;;;;;;;;4995071;28;94871;-69
2023/03/15 03:50:31;;;;;;;3.60;1.98;;;;;;;;;;4983397;28;93406;-69
2023/03/15 03:52:57;;;;;;;4.80;2.20;;;;;;;;;;4990790;28;92482;-69
2023/03/15 03:55:24;;;;;;;6.90;2.22;;;;;;;;;;4984808;28;93171;-69
2023/03/15 03:57:51;;;;;;;8.13;2.60;;;;;;;;;;4975286;28;92808;-69
2023/03/15 04:00:18;;;;;;;10.90;2.92;;;;;;;;;;4990634;28;93261;-68
2023/03/15 04:02:45;;;;;;;3.58;2.28;;;;;;;;;;4978283;28;93446;-69
2023/03/15 04:05:11;;;;;;;2.88;2.53;;;;;;;;;;4991147;28;91738;-69
2023/03/15 04:07:38;;;;;;;8.43;2.67;;;;;;;;;;4987096;28;92829;-68
2023/03/15 04:10:04;;;;;;;5.28;3.03;;;;;;;;;;4988581;28;93939;-68
2023/03/15 04:12:30;;;;;;;3.88;3.13;;;;;;;;;;4992965;28;95203;-68
2023/03/15 04:14:57;;;;;;;6.97;3.10;;;;;;;;;;4993684;28;95549;-68
2023/03/15 04:17:23;;;;;;;7.30;2.60;;;;;;;;;;4998154;28;94794;-68
2023/03/15 04:19:49;;;;;;;3.28;2.28;;;;;;;;;;4989415;28;93934;-68
2023/03/15 04:22:16;;;;;;;5.38;2.83;;;;;;;;;;4987810;28;93626;-68
2023/03/15 04:24:42;;;;;;;10.20;3.50;;;;;;;;;;4992628;28;92901;-68
2023/03/15 04:27:13;;;;;;;8.02;2.97;;;;;;;;;;4993459;28;93619;-68
2023/03/15 04:29:42;;;;;;;15.27;3.03;;;;;;;;;;4985421;28;92718;-68
2023/03/15 04:32:09;;;;;;;7.78;2.78;;;;;;;;;;4992386;28;92455;-68
2023/03/15 04:34:37;;;;;;;5.05;2.50;;;;;;;;;;4990525;28;94179;-68
2023/03/15 04:37:04;;;;;;;10.35;2.80;;;;;;;;;;4988278;28;96400;-68
2023/03/15 04:39:31;;;;;;;3.75;2.85;;;;;;;;;;5000518;28;92396;-68
2023/03/15 04:41:57;;;;;;;6.65;3.35;;;;;;;;;;4986473;28;93394;-68
2023/03/15 04:44:25;;;;;;;7.57;2.65;;;;;;;;;;4978336;28;92512;-68
2023/03/15 04:46:55;;;;;;;8.75;2.80;;;;;;;;;;4990559;28;93369;-68
2023/03/15 04:49:21;;;;;;;5.50;2.70;;;;;;;;;;4991576;28;93500;-69
2023/03/15 04:51:48;;;;;;;7.00;2.83;;;;;;;;;;4992770;28;92957;-68
2023/03/15 04:54:14;;;;;;;4.60;2.60;;;;;;;;;;4992794;28;92885;-68
2023/03/15 04:56:41;;;;;;;7.75;2.78;;;;;;;;;;4994190;28;94474;-67
2023/03/15 04:59:07;;;;;;;11.05;2.90;;;;;;;;;;4990794;28;92527;-67
2023/03/15 05:01:34;;;;;;;5.97;3.15;;;;;;;;;;4989950;28;95315;-67
2023/03/15 05:04:00;;;;;;;6.63;3.25;;;;;;;;;;4992593;28;92596;-67
2023/03/15 05:06:27;;;;;;;18.52;3.85;;;;;;;;;;4992433;28;93330;-68
2023/03/15 05:08:54;;;;;;;7.90;3.05;;;;;;;;;;4993889;28;93451;-67
2023/03/15 05:11:20;;;;;;;5.20;2.72;;;;;;;;;;4995228;28;92464;-69
2023/03/15 05:13:46;;;;;;;12.45;3.50;;;;;;;;;;4994485;28;93134;-68
2023/03/15 05:16:13;;;;;;;7.53;3.22;;;;;;;;;;4992555;28;94476;-69
2023/03/15 05:18:39;;;;;;;7.15;3.65;;;;;;;;;;5012136;28;91604;-68
2023/03/15 05:21:06;;;;;;;5.90;3.17;;;;;;;;;;5011690;28;91957;-68
2023/03/15 05:23:32;;;;;;;6.32;3.30;;;;;;;;;;5014880;28;92448;-68
2023/03/15 05:25:59;;;;;;;8.68;3.25;;;;;;;;;;5010938;28;94650;-68
2023/03/15 05:28:25;;;;;;;7.28;3.15;;;;;;;;;;5013955;28;92666;-69
2023/03/15 05:30:52;;;;;;;12.55;3.10;;;;;;;;;;5005852;28;93053;-69
2023/03/15 05:33:19;;;;;;;7.95;2.95;;;;;;;;;;5012043;28;92383;-69
2023/03/15 05:35:45;;;;;;;3.95;2.83;;;;;;;;;;5006174;28;94378;-68
2023/03/15 05:38:13;;;;;;;5.95;3.10;;;;;;;;;;5014704;28;92264;-68
2023/03/15 05:40:40;;;;;;;6.57;3.38;;;;;;;;;;5011050;28;92529;-69
2023/03/15 05:43:07;;;;;;;7.57;3.67;;;;;;;;;;5013008;28;92608;-71
2023/03/15 05:45:33;;;;;;;13.23;4.03;;;;;;;;;;5003086;28;92203;-68
2023/03/15 05:47:59;;;;;;;14.07;4.07;;;;;;;;;;5015821;28;92190;-70
2023/03/15 05:50:27;;;;;;;7.78;3.65;;;;;;;;;;5016754;28;95041;-70
2023/03/15 05:52:53;;;;;;;11.13;2.95;;;;;;;;;;5018569;28;95429;-70
2023/03/15 05:55:20;;;;;;;12.82;3.70;;;;;;;;;;5016473;28;92073;-66
2023/03/15 05:57:46;;;;;;;10.93;3.33;;;;;;;;;;5014984;28;91913;-67
2023/03/15 06:00:13;;;;;;;5.82;3.25;;;;;;;;;;5013363;28;91914;-66
2023/03/15 06:02:40;;;;;;;6.68;2.35;;;;;;;;;;5016738;28;92330;-69
2023/03/15 06:05:07;;;;;;;10.48;2.80;;;;;;;;;;5017901;28;91726;-66
2023/03/15 06:07:33;;;;;;;10.82;2.67;;;;;;;;;;5013813;28;91499;-68
2023/03/15 06:09:59;;;;;;;13.15;2.63;;;;;;;;;;4984444;28;92534;-68
2023/03/15 06:12:26;;;;;;;12.68;3.03;;;;;;;;;;4987516;28;92988;-68
2023/03/15 06:14:52;;;;;;;9.85;2.67;;;;;;;;;;4992941;28;96744;-68
2023/03/15 06:17:18;;;;;;;8.90;2.85;;;;;;;;;;4996541;28;92491;-68
2023/03/15 06:19:45;;;;;;;11.43;2.38;;;;;;;;;;4990940;28;93110;-68
2023/03/15 06:22:11;;;;;;;9.70;3.22;;;;;;;;;;4984576;28;93408;-68
2023/03/15 06:24:37;;;;;;;7.78;2.53;;;;;;;;;;4995809;28;93021;-68
2023/03/15 06:27:04;;;;;;;9.65;2.55;;;;;;;;;;5003516;28;92851;-68
2023/03/15 06:29:30;;;;;;;6.13;2.60;;;;;;;;;;5001119;28;93273;-69
2023/03/15 06:31:57;;;;;;;7.97;2.70;;;;;;;;;;4988204;28;93030;-68
2023/03/15 06:34:23;;;;;;;6.97;2.75;;;;;;;;;;4996552;28;94542;-68
2023/03/15 06:36:51;;;;;;;11.95;3.13;;;;;;;;;;4995415;28;92668;-68
2023/03/15 06:39:17;;;;;;;9.65;2.50;;;;;;;;;;4984142;28;95009;-68
2023/03/15 06:41:43;;;;;;;9.75;2.53;;;;;;;;;;4986757;28;93562;-68
2023/03/15 06:44:10;;;;;;;12.77;3.03;;;;;;;;;;4994535;28;92755;-68
2023/03/15 06:46:37;;;;;;;11.90;2.58;;;;;;;;;;4991018;28;93345;-68
2023/03/15 06:49:03;;;;;;;15.15;3.67;;;;;;;;;;4986776;28;93478;-68
2023/03/15 06:51:29;;;;;;;13.35;2.95;;;;;;;;;;4982543;28;93067;-68
2023/03/15 06:53:55;;;;;;;8.65;2.72;;;;;;;;;;4988896;28;94434;-68
2023/03/15 06:56:22;;;;;;;8.15;2.67;;;;;;;;;;4981032;28;92862;-69
2023/03/15 06:58:48;;;;;;;21.60;3.20;;;;;;;;;;4983420;28;92832;-69
2023/03/15 07:01:14;;;;;;;6.78;2.45;;;;;;;;;;4986245;28;93569;-69
2023/03/15 07:03:41;;;;;;;20.98;3.97;;;;;;;;;;4975657;28;95029;-68
2023/03/15 07:06:07;;;;;;;9.68;2.55;;;;;;;;;;4976827;28;95549;-68
2023/03/15 07:08:34;;;;;;;10.10;2.83;;;;;;;;;;4976443;28;93051;-69
2023/03/15 07:11:01;;;;;;;6.13;2.58;;;;;;;;;;4992319;28;92544;-68
2023/03/15 07:13:28;;;;;;;18.05;2.92;;;;;;;;;;4996426;28;93413;-69
2023/03/15 07:15:55;;;;;;;10.13;2.25;;;;;;;;;;4995339;28;92439;-69
2023/03/15 07:18:22;;;;;;;12.32;2.63;;;;;;;;;;4995232;28;93021;-69
2023/03/15 07:20:55;;;;;;;11.38;2.85;;;;;;;;;;4989042;28;92682;-69
2023/03/15 07:23:21;;;;;;;9.90;2.45;;;;;;;;;;4985272;28;92420;-69
2023/03/15 07:25:48;;;;;;;10.98;2.53;;;;;;;;;;4993993;28;93338;-69
2023/03/15 07:28:21;;;;;;;10.70;2.38;;;;;;;;;;4994216;28;95887;-69
2023/03/15 07:31:01;;;;;;;10.52;2.22;;;;;;;;;;4989873;28;92535;-69
2023/03/15 07:33:28;;;;;;;12.93;2.92;;;;;;;;;;4997854;28;93154;-69
2023/03/15 07:35:54;;;;;;;9.63;2.53;;;;;;;;;;4994549;28;92419;-70
2023/03/15 07:38:30;;;;;;;6.05;2.22;;;;;;;;;;4993912;28;94069;-70
2023/03/15 07:40:57;;;;;;;10.20;2.50;;;;;;;;;;5002357;28;93469;-69
2023/03/15 07:43:23;;;;;;;10.38;2.50;;;;;;;;;;4995901;28;92498;-69
2023/03/15 07:45:50;;;;;;;7.22;2.08;;;;;;;;;;4990835;28;93130;-69
2023/03/15 07:48:16;;;;;;;6.60;2.45;;;;;;;;;;4987503;28;93386;-68
2023/03/15 07:50:43;;;;;;;9.52;2.40;;;;;;;;;;4993530;28;92678;-69
2023/03/15 07:53:10;;;;;;;5.18;2.28;;;;;;;;;;4990608;28;94863;-68
2023/03/15 07:55:36;;;;;;;7.43;2.15;;;;;;;;;;4996780;28;93310;-68
2023/03/15 07:58:02;;;;;;;10.65;2.15;;;;;;;;;;4994473;28;93033;-68
2023/03/15 08:00:29;;;;;;;11.07;2.40;;;;;;;;;;4992473;28;93516;-68
2023/03/15 08:02:55;;;;;;;10.75;2.20;;;;;;;;;;4977539;28;92361;-68
2023/03/15 08:05:23;;;;;;;9.50;2.28;;;;;;;;;;4975687;28;93327;-69
2023/03/15 08:07:50;;;;;;;6.65;1.58;;;;;;;;;;4975386;28;93450;-69
2023/03/15 08:10:17;;;;;;;10.73;2.00;;;;;;;;;;4978784;28;91770;-68
2023/03/15 08:12:43;;;;;;;10.70;1.65;;;;;;;;;;4992866;28;92802;-69
2023/03/15 08:15:10;;;;;;;11.07;2.10;;;;;;;;;;4998860;28;94009;-68
2023/03/15 08:17:37;;;;;;;8.57;2.00;;;;;;;;;;4984751;28;94853;-68
2023/03/15 08:20:04;;;;;;;10.07;1.77;;;;;;;;;;4979993;28;94816;-69
2023/03/15 08:22:30;;;;;;;20.95;3.13;;;;;;;;;;4992451;28;92571;-69
2023/03/15 08:24:57;;;;;;;11.60;2.63;;;;;;;;;;4990397;28;93195;-69
2023/03/15 08:27:24;;;;;;;15.10;2.55;;;;;;;;;;4995400;28;94873;-68
2023/03/15 08:29:50;;;;;;;10.70;2.90;;;;;;;;;;4995251;28;92536;-68
2023/03/15 08:32:18;;;;;;;13.95;2.35;;;;;;;;;;4989053;28;93442;-68
2023/03/15 08:34:45;;;;;;;11.23;2.13;;;;;;;;;;4978364;28;95680;-68
2023/03/15 08:37:11;;;;;;;9.15;2.30;;;;;;;;;;4981456;28;92542;-68
2023/03/15 08:39:38;;;;;;;6.13;1.30;;;;;;;;;;4992914;28;94280;-67
2023/03/15 08:42:05;;;;;;;10.50;1.90;;;;;;;;;;4993427;28;94870;-67
2023/03/15 08:44:31;;;;;;;7.28;3.20;;;;;;;;;;4994659;28;95501;-68
2023/03/15 08:47:01;;;;;;;11.13;2.97;;;;;;;;;;4994987;28;93483;-67
2023/03/15 08:49:28;;;;;;;7.82;1.40;;;;;;;;;;4995041;28;92510;-67
2023/03/15 08:51:54;;;;;;;5.43;1.77;;;;;;;;;;4985350;28;93115;-68
2023/03/15 08:54:20;;;;;;;9.90;1.77;;;;;;;;;;4994766;28;94596;-68
2023/03/15 08:56:47;;;;;;;15.70;2.25;;;;;;;;;;4993105;28;92774;-68
2023/03/15 08:59:14;;;;;;;7.07;1.52;;;;;;;;;;4998389;28;94238;-68
2023/03/15 09:01:56;;;;;;;7.00;1.85;;;;;;;;;;4994507;28;92418;-68
2023/03/15 09:04:22;;;;;;;6.70;1.85;;;;;;;;;;4982410;28;92953;-68
2023/03/15 09:06:49;;;;;;;8.18;1.67;;;;;;;;;;4973129;28;95910;-67
2023/03/15 09:09:16;;;;;;;16.38;2.33;;;;;;;;;;4978317;28;92462;-68
2023/03/15 09:11:42;;;;;;;6.40;1.30;;;;;;;;;;4994742;28;93215;-68
2023/03/15 09:14:08;;;;;;;12.57;1.85;;;;;;;;;;4990057;28;94626;-68
2023/03/15 09:16:35;;;;;;;7.55;2.35;;;;;;;;;;4984467;28;92542;-68
2023/03/15 09:19:01;;;;;;;9.07;1.35;;;;;;;;;;4974647;28;93145;-68
2023/03/15 09:21:28;;;;;;;8.70;1.73;;;;;;;;;;4977714;28;94622;-68
2023/03/15 09:23:54;;;;;;;8.68;1.58;;;;;;;;;;4986011;28;93102;-68
2023/03/15 09:26:20;;;;;;;5.38;1.42;;;;;;;;;;4993794;28;93710;-68
2023/03/15 09:28:47;;;;;;;8.73;1.60;;;;;;;;;;4981668;28;92520;-68
2023/03/15 09:31:13;;;;;;;4.25;1.50;;;;;;;;;;4973217;28;94715;-68
2023/03/15 09:33:40;;;;;;;6.97;1.52;;;;;;;;;;4975689;28;92360;-68
2023/03/15 09:36:06;;;;;;;3.58;1.38;;;;;;;;;;4987713;28;92460;-70
2023/03/15 09:38:32;;;;;;;8.35;2.03;;;;;;;;;;5003106;28;93222;-68
2023/03/15 09:40:59;;;;;;;7.93;1.40;;;;;;;;;;4992911;28;93381;-69
2023/03/15 09:43:25;;;;;;;6.00;1.10;;;;;;;;;;4989422;28;92519;-68
2023/03/15 09:46:10;;;;;;;6.72;1.63;;;;;;;;;;4974088;28;93741;-69
2023/03/15 09:48:45;;;;;;;10.90;1.75;;;;;;;;;;4992498;28;91824;-68
2023/03/15 09:51:17;;;;;;;6.38;1.55;;;;;;;;;;4976743;28;92445;-68
2023/03/15 09:54:03;;;;;;;5.07;1.83;;;;;;;;;;4991507;28;93522;-69
2023/03/15 09:56:35;;;;;;;8.13;1.73;;;;;;;;;;4985446;28;96599;-66
2023/03/15 09:59:02;;;;;;;10.85;1.67;;;;;;;;;;4978509;28;95595;-66
2023/03/15 10:01:34;;;;;;;9.90;1.67;;;;;;;;;;4973987;28;95758;-66
2023/03/15 10:04:06;;;;;;;8.02;1.98;;;;;;;;;;4973890;28;92817;-67
2023/03/15 10:06:33;;;;;;;12.85;3.72;;;;;;;;;;4989977;28;93313;-70
2023/03/15 10:09:05;;;;;;;6.18;1.65;;;;;;;;;;4996628;28;92703;-67
2023/03/15 10:11:44;;;;;;;9.38;1.90;;;;;;;;;;4995555;28;93721;-67
2023/03/15 10:14:13;;;;;;;7.75;1.70;;;;;;;;;;4994613;28;92661;-67
2023/03/15 10:16:43;;;;;;;9.77;2.20;;;;;;;;;;4986731;28;93149;-67
2023/03/15 10:19:11;;;;;;;;;;;;;;;;;;4991261;28;93314;-67
2023/03/15 10:21:41;;;;;;;8.20;1.77;;;;;;;;;;4996181;28;126600;-67
2023/03/15 10:24:17;;;;;;;9.93;3.28;;;;;;;;;;4995965;28;92909;-67
2023/03/15 10:26:43;;;;;;;10.07;1.70;;;;;;;;;;4997092;28;93113;-67
2023/03/15 10:29:16;;;;;;;4.60;1.73;;;;;;;;;;4977259;28;92665;-67
2023/03/15 10:31:45;;;;;;;9.82;2.03;;;;;;;;;;4994707;28;93295;-67
2023/03/15 10:34:12;;;;;;;6.10;1.60;;;;;;;;;;4995194;28;93392;-67
2023/03/15 10:36:46;;;;;;;8.50;1.83;;;;;;;;;;4993790;28;92460;-67
2023/03/15 10:39:12;;;;;;;8.40;1.83;;;;;;;;;;4997277;28;93099;-67
2023/03/15 10:41:40;;;;;;;8.07;1.55;;;;;;;;;;4996706;28;93988;-67
2023/03/15 10:44:12;;;;;;;3.97;1.40;;;;;;;;;;4995906;28;92487;-67
2023/03/15 10:46:38;;;;;;;6.70;1.60;;;;;;;;;;4994090;28;95089;-67
2023/03/15 10:49:09;;;;;;;7.22;1.63;;;;;;;;;;4999801;28;93487;-67
2023/03/15 10:51:37;;;;;;;7.63;1.88;;;;;;;;;;4996070;28;93298;-67
2023/03/15 10:54:06;;;;;;;5.10;1.47;;;;;;;;;;4990964;28;93538;-67
2023/03/15 10:56:45;;;;;;;7.60;1.50;;;;;;;;;;4996618;28;92718;-67
2023/03/15 10:59:16;;;;;;;3.45;1.27;;;;;;;;;;4997024;28;93219;-67
2023/03/15 11:01:46;;;;;;;5.05;1.60;;;;;;;;;;4992651;28;93744;-67
2023/03/15 11:04:15;;;;;;;5.63;1.52;;;;;;;;;;4995549;28;93261;-67
2023/03/15 11:06:46;;;;;;;4.60;1.77;;;;;;;;;;4996736;28;93505;-67
2023/03/15 11:09:16;;;;;;;6.30;1.73;;;;;;;;;;4996593;28;93422;-67
2023/03/15 11:11:53;;;;;;;4.32;1.40;;;;;;;;;;4996726;28;94948;-67
2023/03/15 11:14:20;;;;;;;9.02;1.60;;;;;;;;;;4987546;28;96043;-67
2023/03/15 11:16:54;;;;;;;4.03;1.50;;;;;;;;;;4989280;28;92476;-67
2023/03/15 11:19:22;;;;;;;6.75;1.40;;;;;;;;;;4995595;28;93245;-67
2023/03/15 11:21:49;;;;;;;6.78;1.52;;;;;;;;;;4995467;28;93492;-67
2023/03/15 11:24:20;;;;;;;9.52;1.50;;;;;;;;;;4988510;28;92528;-67
2023/03/15 11:26:51;;;;;;;4.32;1.27;;;;;;;;;;4976600;28;93455;-67
2023/03/15 11:29:21;;;;;;;7.70;1.63;;;;;;;;;;4976692;28;92690;-67
2023/03/15 11:31:48;;;;;;;6.63;1.58;;;;;;;;;;4979035;28;92652;-68
2023/03/15 11:34:20;;;;;;;5.55;1.75;;;;;;;;;;4990909;28;93219;-67
2023/03/15 11:36:49;;;;;;;3.67;1.20;;;;;;;;;;4993491;28;94915;-68
2023/03/15 11:39:44;;;;;;;4.70;1.23;;;;;;;;;;4995278;28;95304;-69
2023/03/15 11:42:17;;;;;;;3.65;1.38;;;;;;;;;;4988645;28;93632;-68
2023/03/15 11:44:45;;;;;;;4.40;1.65;;;;;;;;;;4988418;28;93636;-68
2023/03/15 11:47:11;;;;;;;7.32;1.77;;;;;;;;;;4990434;28;94566;-68
2023/03/15 11:49:41;;;;;;;7.60;1.70;;;;;;;;;;4995943;28;94362;-68
2023/03/15 11:52:07;;;;;;;;;;;;;;;;;;4996433;28;92640;-67
2023/03/15 11:54:33;;;;;;;5.53;1.40;;;;;;;;;;4994228;28;123407;-68
2023/03/15 11:57:03;;;;;;;5.05;1.23;;;;;;;;;;4998970;28;93247;-67
2023/03/15 11:59:47;;;;;;;2.78;1.40;;;;;;;;;;4995855;28;93225;-67
2023/03/15 12:02:13;;;;;;;5.05;1.42;;;;;;;;;;4975699;28;96058;-67
2023/03/15 12:04:46;;;;;;;5.47;1.48;;;;;;;;;;4991762;28;92453;-67
2023/03/15 12:07:15;;;;;;;5.47;1.88;;;;;;;;;;4995398;28;92355;-67
2023/03/15 12:09:48;;;;;;;4.05;1.20;;;;;;;;;;4994885;28;94121;-68
2023/03/15 12:12:23;;;;;;;6.35;1.55;;;;;;;;;;4993746;28;92746;-67
2023/03/15 12:15:07;;;;;;;4.53;1.60;;;;;;;;;;4992364;28;93163;-80
2023/03/15 12:17:33;;;;;;;9.38;2.17;;;;;;;;;;4980735;28;94764;-76
2023/03/15 12:20:03;;;;;;;8.27;2.45;;;;;;;;;;4994531;28;91895;-79
2023/03/15 12:22:31;;;;;;;7.50;1.73;;;;;;;;;;4992620;28;94472;-77
2023/03/15 12:25:03;;;;;;;7.13;1.80;;;;;;;;;;4980264;28;94370;-76
2023/03/15 12:27:29;;;;;;;7.18;1.90;;;;;;;;;;4997215;28;94822;-75
2023/03/15 12:30:00;;;;;;;7.88;1.92;;;;;;;;;;4994477;28;93766;-75
2023/03/15 12:32:27;;;;;;;4.70;1.30;;;;;;;;;;4996009;28;92428;-77
2023/03/15 12:34:57;;;;;;;6.55;1.88;;;;;;;;;;4995611;28;93136;-78
2023/03/15 12:37:32;;;;;;;6.03;1.65;;;;;;;;;;4995370;28;93794;-76
2023/03/15 12:40:14;;;;;;;5.97;1.50;;;;;;;;;;4989094;28;92449;-77
2023/03/15 12:42:40;;;;;;;2.72;1.20;;;;;;;;;;4983641;28;93442;-74
2023/03/15 12:45:19;;;;;;;5.35;1.70;;;;;;;;;;4996140;28;92027;-74
2023/03/15 12:48:11;;;;;;;4.22;1.30;;;;;;;;;;4995504;28;92415;-76
2023/03/15 12:50:43;;;;;;;11.85;2.10;;;;;;;;;;4995136;28;93680;-75
2023/03/15 12:53:26;;;;;;;3.80;1.40;;;;;;;;;;4993940;28;94771;-75
2023/03/15 12:55:53;;;;;;;4.78;1.58;;;;;;;;;;4995238;28;95524;-75
2023/03/15 12:58:34;;;;;;;4.55;1.25;;;;;;;;;;4992570;28;93400;-77
2023/03/15 13:01:04;;;;;;;4.13;1.38;;;;;;;;;;4994676;28;92474;-76
2023/03/15 13:03:33;;;;;;;;;;;;;;;;;;4998312;28;93240;-75
2023/03/15 13:05:59;;;;;;;9.70;2.22;;;;;;;;;;4994217;28;116631;-67
2023/03/15 13:08:42;;;;;;;8.73;1.80;;;;;;;;;;4979537;28;93488;-73
2023/03/15 13:11:11;;;;;;;5.90;1.42;;;;;;;;;;4993826;28;93397;-72
2023/03/15 13:13:55;;;;;;;5.20;1.40;;;;;;;;;;4979057;28;92769;-73
2023/03/15 13:16:25;;;;;;;9.60;1.67;;;;;;;;;;4997370;28;93314;-80
2023/03/15 13:18:56;;;;;;;5.30;1.75;;;;;;;;;;5012916;28;94863;-72
2023/03/15 13:21:25;;;;;;;8.77;1.88;;;;;;;;;;5015812;28;92369;-77
2023/03/15 13:23:55;;;;;;;4.33;1.27;;;;;;;;;;5014382;28;93849;-77
2023/03/15 13:26:28;;;;;;;5.40;1.05;;;;;;;;;;4983361;28;93493;-78
2023/03/15 13:28:57;;;;;;;6.65;1.30;;;;;;;;;;4995588;28;94567;-75
2023/03/15 13:31:28;;;;;;;5.20;1.53;;;;;;;;;;4990777;28;94341;-80
2023/03/15 13:34:02;;;;;;;8.52;1.77;;;;;;;;;;4989384;28;92383;-72
2023/03/15 13:36:38;;;;;;;5.20;1.00;;;;;;;;;;4976975;28;94586;-74
2023/03/15 13:39:09;;;;;;;6.28;1.30;;;;;;;;;;4986416;28;93784;-75
2023/03/15 13:41:37;;;;;;;6.25;1.48;;;;;;;;;;4992798;28;92494;-76
2023/03/15 13:44:11;;;;;;;5.72;1.40;;;;;;;;;;4993516;28;94769;-77
2023/03/15 13:46:38;;;;;;;5.18;1.30;;;;;;;;;;4998867;28;92468;-75
2023/03/15 13:49:05;;;;;;;5.95;1.38;;;;;;;;;;5005239;28;92605;-74
2023/03/15 13:51:33;;;;;;;5.55;1.50;;;;;;;;;;4985259;28;93601;-74
2023/03/15 13:54:04;;;;;;;11.82;2.00;;;;;;;;;;4993467;28;92431;-74
2023/03/15 13:56:32;;;;;;;8.70;1.40;;;;;;;;;;4989703;28;93272;-74
2023/03/15 13:59:14;;;;;;;4.60;1.50;;;;;;;;;;4992041;28;93226;-74
2023/03/15 14:01:41;;;;;;;5.35;1.15;;;;;;;;;;4993333;28;91720;-74
2023/03/15 14:04:10;;;;;;;6.25;1.33;;;;;;;;;;4993022;28;92674;-74
2023/03/15 14:06:36;;;;;;;6.38;1.77;;;;;;;;;;4975589;28;93858;-74
2023/03/15 14:09:10;;;;;;;3.47;1.60;;;;;;;;;;4973116;28;94919;-76
2023/03/15 14:11:39;;;;;;;3.10;1.25;;;;;;;;;;4984106;28;96044;-74
2023/03/15 14:14:20;;;;;;;3.88;1.20;;;;;;;;;;4993860;28;92861;-68
2023/03/15 14:16:47;;;;;;;3.92;1.40;;;;;;;;;;4992925;28;93089;-68
2023/03/15 14:19:31;;;;;;;5.65;1.15;;;;;;;;;;4993921;28;93500;-68
2023/03/15 14:22:00;;;;;;;4.05;1.40;;;;;;;;;;4992122;28;93220;-68
2023/03/15 14:24:29;;;;;;;4.68;1.20;;;;;;;;;;4991829;28;93131;-68
2023/03/15 14:27:00;;;;;;;5.95;1.75;;;;;;;;;;4974750;28;93287;-68
2023/03/15 14:29:28;;;;;;;4.05;1.10;;;;;;;;;;4974640;28;92627;-68
2023/03/15 14:31:57;;;;;;;5.70;2.10;;;;;;;;;;4980473;28;93708;-68
2023/03/15 14:34:32;;;;;;;3.17;2.03;;;;;;;;;;4987762;28;94911;-68
2023/03/15 14:37:03;;;;;;;6.18;2.63;;;;;;;;;;4974751;28;95482;-69
2023/03/15 14:39:30;;;;;;;8.30;1.45;;;;;;;;;;4992374;28;93666;-69
2023/03/15 14:41:57;;;;;;;6.25;1.10;;;;;;;;;;4993380;28;92590;-69
2023/03/15 14:44:23;;;;;;;6.75;1.20;;;;;;;;;;4993693;28;93173;-69
2023/03/15 14:46:49;;;;;;;3.38;1.13;;;;;;;;;;4990909;28;94183;-69
2023/03/15 14:49:20;;;;;;;5.45;1.15;;;;;;;;;;4987764;28;92525;-69